createdAt,value
2022-08-12T00:02:04.438Z,2.42
2022-08-12T00:04:43.041Z,2.33
2022-08-12T00:07:49.908Z,3.17
2022-08-12T00:10:55.634Z,2.67
2022-08-12T00:14:01.163Z,2.75
2022-08-12T00:17:07.551Z,2.83
2022-08-12T00:20:12.941Z,2.75
2022-08-12T00:23:18.154Z,2.95
2022-08-12T00:26:24.543Z,2.60
2022-08-12T00:29:30.312Z,2.50
2022-08-12T00:32:36.820Z,2.95
2022-08-12T00:35:42.378Z,2.90
2022-08-12T00:38:48.617Z,2.58
2022-08-12T00:41:55.099Z,2.25
2022-08-12T00:44:44.964Z,2.60
2022-08-12T00:47:35.907Z,2.87
2022-08-12T00:50:25.682Z,2.55
2022-08-12T00:53:14.250Z,2.60
2022-08-12T00:56:05.063Z,2.40
2022-08-12T00:58:54.124Z,2.62
2022-08-12T01:02:11.472Z,2.87
2022-08-12T01:04:54.204Z,2.75
2022-08-12T01:08:02.988Z,2.50
2022-08-12T01:11:09.932Z,3.25
2022-08-12T01:14:00.261Z,2.72
2022-08-12T01:16:48.616Z,2.60
2022-08-12T01:19:40.435Z,2.60
2022-08-12T01:22:40.550Z,2.58
2022-08-12T01:25:30.838Z,2.90
2022-08-12T01:28:20.905Z,2.92
2022-08-12T01:31:13.302Z,2.80
2022-08-12T01:34:35.876Z,2.35
2022-08-12T01:37:03.199Z,2.83
2022-08-12T01:40:35.755Z,2.27
2022-08-12T01:42:48.045Z,2.90
2022-08-12T01:45:40.603Z,2.58
2022-08-12T01:48:46.024Z,2.58
2022-08-12T01:52:19.954Z,2.50
2022-08-12T01:54:30.683Z,2.47
2022-08-12T01:57:58.895Z,2.55
2022-08-12T02:00:20.667Z,2.58
2022-08-12T02:03:22.180Z,2.55
2022-08-12T02:06:30.249Z,3.10
2022-08-12T02:09:38.537Z,2.80
2022-08-12T02:12:45.418Z,2.50
2022-08-12T02:15:46.102Z,2.75
2022-08-12T02:18:43.582Z,2.60
2022-08-12T02:21:40.109Z,2.58
2022-08-12T02:24:32.676Z,2.47
2022-08-12T02:27:22.308Z,2.90
2022-08-12T02:30:12.465Z,2.95
2022-08-12T02:33:01.706Z,2.60
2022-08-12T02:35:51.505Z,2.45
2022-08-12T02:38:42.897Z,2.77
2022-08-12T02:41:33.330Z,2.85
2022-08-12T02:44:22.777Z,2.60
2022-08-12T02:47:55.858Z,2.80
2022-08-12T02:50:02.858Z,3.10
2022-08-12T02:52:52.264Z,2.83
2022-08-12T02:55:40.366Z,2.72
2022-08-12T02:58:33.030Z,2.80
2022-08-12T03:01:20.639Z,2.65
2022-08-12T03:04:20.779Z,2.87
2022-08-12T03:07:13.623Z,2.70
2022-08-12T03:10:17.751Z,2.87
2022-08-12T03:13:04.022Z,2.72
2022-08-12T03:15:51.087Z,2.83
2022-08-12T03:18:38.508Z,2.70
2022-08-12T03:21:54.660Z,2.77
2022-08-12T03:24:18.746Z,2.72
2022-08-12T03:27:09.206Z,2.50
2022-08-12T03:29:59.013Z,2.77
2022-08-12T03:32:49.092Z,3.02
2022-08-12T03:35:56.844Z,2.70
2022-08-12T03:38:48.834Z,3.20
2022-08-12T03:41:39.725Z,2.80
2022-08-12T03:44:58.294Z,2.80
2022-08-12T03:48:25.077Z,3.12
2022-08-12T03:51:30.377Z,2.92
2022-08-12T03:54:38.274Z,3.02
2022-08-12T03:57:42.198Z,2.90
2022-08-12T04:00:33.486Z,2.60
2022-08-12T04:03:39.978Z,3.25
2022-08-12T04:06:34.497Z,2.70
2022-08-12T04:09:23.423Z,2.60
2022-08-12T04:12:32.758Z,2.62
2022-08-12T04:15:22.396Z,2.90
2022-08-12T04:18:09.464Z,2.60
2022-08-12T04:20:56.945Z,3.00
2022-08-12T04:23:48.416Z,2.60
2022-08-12T04:26:35.128Z,2.75
2022-08-12T04:30:29.654Z,2.37
2022-08-12T04:32:12.506Z,2.60
2022-08-12T04:34:59.749Z,2.83
2022-08-12T04:37:58.162Z,2.40
2022-08-12T04:40:38.558Z,2.20
2022-08-12T04:44:00.627Z,2.50
2022-08-12T04:46:18.477Z,2.77
2022-08-12T04:49:05.444Z,2.55
2022-08-12T04:51:58.836Z,2.70
2022-08-12T04:54:43.898Z,2.77
2022-08-12T04:57:31.079Z,2.30
2022-08-12T05:00:18.436Z,2.62
2022-08-12T05:03:07.515Z,2.30
2022-08-12T05:05:57.455Z,2.25
2022-08-12T05:08:44.689Z,2.70
2022-08-12T05:11:31.913Z,2.58
2022-08-12T05:14:19.407Z,3.02
2022-08-12T05:17:06.896Z,2.33
2022-08-12T05:19:57.365Z,2.45
2022-08-12T05:22:45.304Z,2.40
2022-08-12T05:25:32.694Z,2.60
2022-08-12T05:28:20.062Z,2.17
2022-08-12T05:31:07.697Z,3.12
2022-08-12T05:33:55.114Z,2.40
2022-08-12T05:36:44.150Z,2.58
2022-08-12T05:39:31.657Z,2.50
2022-08-12T05:42:18.692Z,2.55
2022-08-12T05:45:08.505Z,2.67
2022-08-12T05:47:55.712Z,2.80
2022-08-12T05:50:43.997Z,2.62
2022-08-12T05:53:31.277Z,2.55
2022-08-12T05:56:24.341Z,2.67
2022-08-12T05:59:13.241Z,2.60
2022-08-12T06:02:09.790Z,2.60
2022-08-12T06:04:51.090Z,2.20
2022-08-12T06:08:01.677Z,2.65
2022-08-12T06:10:37.221Z,2.35
2022-08-12T06:13:28.588Z,2.62
2022-08-12T06:16:15.985Z,2.98
2022-08-12T06:19:03.540Z,2.40
2022-08-12T06:21:51.571Z,2.67
2022-08-12T06:24:38.864Z,2.52
2022-08-12T06:27:26.299Z,2.52
2022-08-12T06:30:27.667Z,2.40
2022-08-12T06:33:11.763Z,2.17
2022-08-12T06:35:55.327Z,2.35
2022-08-12T06:38:45.161Z,2.35
2022-08-12T06:42:10.770Z,2.00
2022-08-12T06:44:39.362Z,2.33
2022-08-12T06:47:27.084Z,2.30
2022-08-12T06:50:16.401Z,2.15
2022-08-12T06:53:05.440Z,2.30
2022-08-12T06:55:57.529Z,2.55
2022-08-12T06:58:44.526Z,2.77
2022-08-12T07:01:32.075Z,1.98
2022-08-12T07:04:37.452Z,2.22
2022-08-12T07:07:10.501Z,2.42
2022-08-12T07:10:05.774Z,2.12
2022-08-12T07:12:49.073Z,2.00
2022-08-12T07:15:37.034Z,2.67
2022-08-12T07:18:30.478Z,2.17
2022-08-12T07:21:19.203Z,2.35
2022-08-12T07:24:06.665Z,2.20
2022-08-12T07:26:55.034Z,2.60
2022-08-12T07:30:00.069Z,2.33
2022-08-12T07:32:31.189Z,2.17
2022-08-12T07:35:20.262Z,3.15
2022-08-12T07:38:10.375Z,2.40
2022-08-12T07:41:06.643Z,2.20
2022-08-12T07:44:04.316Z,3.10
2022-08-12T07:46:49.891Z,2.22
2022-08-12T07:50:05.113Z,2.25
2022-08-12T07:52:26.188Z,2.37
2022-08-12T07:55:15.245Z,2.20
2022-08-12T07:58:03.176Z,2.42
2022-08-12T08:00:51.051Z,2.35
2022-08-12T08:03:49.185Z,2.60
2022-08-12T08:06:32.586Z,2.55
2022-08-12T08:09:23.005Z,2.22
2022-08-12T08:12:28.645Z,2.20
2022-08-12T08:15:16.866Z,2.60
2022-08-12T08:18:19.829Z,2.40
2022-08-12T08:21:05.573Z,2.60
2022-08-12T08:24:12.828Z,2.62
2022-08-12T08:27:01.018Z,2.35
2022-08-12T08:29:48.686Z,2.00
2022-08-12T08:32:36.118Z,2.20
2022-08-12T08:35:25.250Z,2.22
2022-08-12T08:38:32.052Z,2.00
2022-08-12T08:42:15.317Z,2.90
2022-08-12T08:44:14.365Z,2.17
2022-08-12T08:47:03.337Z,2.02
2022-08-12T08:50:10.343Z,2.20
2022-08-12T08:56:04.109Z,1.92
2022-08-12T08:58:33.469Z,1.90
2022-08-12T09:01:21.511Z,2.10
2022-08-12T09:05:08.344Z,2.08
2022-08-12T09:07:16.802Z,2.40
2022-08-12T09:10:03.661Z,2.20
2022-08-12T09:13:00.957Z,1.77
2022-08-12T09:18:36.669Z,2.30
2022-08-12T09:21:24.083Z,1.67
2022-08-12T09:24:12.725Z,2.08
2022-08-12T09:27:00.624Z,1.95
2022-08-12T09:30:10.069Z,1.80
2022-08-12T09:33:05.200Z,1.60
2022-08-12T09:35:30.312Z,1.62
2022-08-12T09:38:28.932Z,1.85
2022-08-12T09:42:09.198Z,1.90
2022-08-12T09:44:38.064Z,1.98
2022-08-12T09:47:03.094Z,1.70
2022-08-12T09:49:58.622Z,1.60
2022-08-12T09:52:42.707Z,2.27
2022-08-12T09:55:59.726Z,1.72
2022-08-12T09:58:57.622Z,1.90
2022-08-12T10:01:23.240Z,1.52
2022-08-12T10:04:06.485Z,1.50
2022-08-12T10:06:57.719Z,1.50
2022-08-12T10:09:57.909Z,1.72
2022-08-12T10:13:07.205Z,1.67
2022-08-12T10:18:29.352Z,1.98
2022-08-12T10:21:18.949Z,1.45
2022-08-12T10:24:08.801Z,1.70
2022-08-12T10:27:15.841Z,1.90
2022-08-12T10:30:39.355Z,1.55
2022-08-12T10:32:57.267Z,1.62
2022-08-12T10:35:46.445Z,1.67
2022-08-12T10:38:41.604Z,1.50
2022-08-12T10:41:58.237Z,1.65
2022-08-12T10:44:30.339Z,1.80
2022-08-12T10:47:26.629Z,1.70
2022-08-12T10:50:29.513Z,2.35
2022-08-12T10:53:00.344Z,1.67
2022-08-12T10:55:56.099Z,1.80
2022-08-12T10:58:40.846Z,1.70
2022-08-12T11:04:17.455Z,1.77
2022-08-12T11:04:35.857Z,1.72
2022-08-12T11:08:34.355Z,1.70
2022-08-12T11:10:01.644Z,1.67
2022-08-12T11:12:59.529Z,1.50
2022-08-12T11:16:03.931Z,1.60
2022-08-12T11:18:26.548Z,1.65
2022-08-12T11:21:15.894Z,1.60
2022-08-12T11:24:03.989Z,1.42
2022-08-12T11:27:11.678Z,1.72
2022-08-12T11:30:02.455Z,1.70
2022-08-12T11:32:48.350Z,1.67
2022-08-12T11:35:40.588Z,1.85
2022-08-12T11:38:29.147Z,1.50
2022-08-12T11:41:16.865Z,1.67
2022-08-12T11:44:37.033Z,1.60
2022-08-12T11:46:56.139Z,1.50
2022-08-12T11:49:49.865Z,1.87
2022-08-12T11:52:55.603Z,1.57
2022-08-12T11:55:23.075Z,1.65
2022-08-12T11:59:08.426Z,1.62
2022-08-12T12:03:49.339Z,1.65
2022-08-12T12:06:36.770Z,1.92
2022-08-12T12:09:26.073Z,1.70
2022-08-12T12:12:13.842Z,1.80
2022-08-12T12:15:06.635Z,1.60
2022-08-12T12:17:51.856Z,1.67
2022-08-12T12:20:40.648Z,1.62
2022-08-12T12:23:29.551Z,1.30
2022-08-12T12:26:35.454Z,1.70
2022-08-12T12:29:11.176Z,1.50
2022-08-12T12:32:09.076Z,1.55
2022-08-12T12:35:14.311Z,1.40
2022-08-12T12:38:05.089Z,1.40
2022-08-12T12:40:21.726Z,1.92
2022-08-12T12:43:10.934Z,1.67
2022-08-12T12:45:58.980Z,1.62
2022-08-12T12:48:48.353Z,1.50
2022-08-12T12:52:06.799Z,1.67
2022-08-12T12:54:28.932Z,1.30
2022-08-12T12:57:14.560Z,1.30
2022-08-12T13:00:16.568Z,1.50
2022-08-12T13:03:04.135Z,1.50
2022-08-12T13:05:53.635Z,1.17
2022-08-12T13:08:43.264Z,1.30
2022-08-12T13:11:42.223Z,1.55
2022-08-12T13:14:29.571Z,1.67
2022-08-12T13:17:16.663Z,1.40
2022-08-12T13:20:05.911Z,1.40
2022-08-12T13:22:54.651Z,1.55
2022-08-12T13:25:43.767Z,1.47
2022-08-12T13:28:32.428Z,1.50
2022-08-12T13:31:22.128Z,1.20
2022-08-12T13:34:33.549Z,1.30
2022-08-12T13:37:00.013Z,1.65
2022-08-12T13:39:47.649Z,1.60
2022-08-12T13:42:38.371Z,1.92
2022-08-12T13:45:29.160Z,1.87
2022-08-12T13:48:19.745Z,1.70
2022-08-12T13:51:06.529Z,1.57
2022-08-12T13:53:55.303Z,1.42
2022-08-12T13:56:43.020Z,1.95
2022-08-12T13:59:48.089Z,1.95
2022-08-12T14:02:22.551Z,1.40
2022-08-12T14:05:37.443Z,1.52
2022-08-12T14:08:01.948Z,1.90
2022-08-12T14:10:54.011Z,1.47
2022-08-12T14:14:05.767Z,1.42
2022-08-12T14:16:47.084Z,1.77
2022-08-12T14:19:25.130Z,1.50
2022-08-12T14:22:12.923Z,1.60
2022-08-12T14:25:01.236Z,1.30
2022-08-12T14:28:06.142Z,1.70
2022-08-12T14:30:39.239Z,1.30
2022-08-12T14:33:44.061Z,1.60
2022-08-12T14:36:25.332Z,1.82
2022-08-12T14:39:12.718Z,1.50
2022-08-12T14:41:59.743Z,1.40
2022-08-12T14:44:59.267Z,1.70
2022-08-12T14:47:36.129Z,1.62
2022-08-12T14:50:37.678Z,1.60
2022-08-12T14:59:20.410Z,1.50
2022-08-12T15:02:01.173Z,1.62
2022-08-12T15:04:55.446Z,1.50
2022-08-12T15:07:49.477Z,1.37
2022-08-12T15:10:34.240Z,1.40
2022-08-12T15:13:23.226Z,1.50
2022-08-12T15:16:10.791Z,1.27
2022-08-12T15:18:59.427Z,1.30
2022-08-12T15:22:35.426Z,1.20
2022-08-12T15:24:37.231Z,1.25
2022-08-12T15:27:31.776Z,1.32
2022-08-12T15:30:14.008Z,1.20
2022-08-12T15:33:12.958Z,1.20
2022-08-12T15:35:54.198Z,1.25
2022-08-12T15:38:42.358Z,1.30
2022-08-12T15:41:29.677Z,1.30
2022-08-12T15:44:42.917Z,1.40
2022-08-12T15:47:08.686Z,1.67
2022-08-12T15:50:00.444Z,1.52
2022-08-12T15:52:47.655Z,1.42
2022-08-12T15:55:36.934Z,1.35
2022-08-12T15:58:25.857Z,1.42
2022-08-12T16:01:15.648Z,1.70
2022-08-12T16:04:05.173Z,1.87
2022-08-12T16:07:05.458Z,1.40
2022-08-12T16:09:55.778Z,1.25
2022-08-12T16:12:32.534Z,1.30
2022-08-12T16:15:22.389Z,1.52
2022-08-12T16:18:18.432Z,1.42
2022-08-12T16:20:59.444Z,1.27
2022-08-12T16:23:55.740Z,1.65
2022-08-12T16:26:40.173Z,1.35
2022-08-12T16:29:29.389Z,1.98
2022-08-12T16:32:19.325Z,1.47
2022-08-12T16:35:08.081Z,2.17
2022-08-12T16:38:25.612Z,1.42
2022-08-12T16:40:46.161Z,1.70
2022-08-12T16:43:35.160Z,1.60
2022-08-12T16:46:32.419Z,1.60
2022-08-12T16:49:14.129Z,1.40
2022-08-12T16:52:01.670Z,1.25
2022-08-12T16:54:50.487Z,1.60
2022-08-12T16:57:39.247Z,1.37
2022-08-12T17:00:29.544Z,1.67
2022-08-12T17:03:28.930Z,1.30
2022-08-12T17:06:09.887Z,1.40
2022-08-12T17:08:59.620Z,1.30
2022-08-12T17:11:50.617Z,1.32
2022-08-12T17:14:38.003Z,1.20
2022-08-12T17:17:48.042Z,1.45
2022-08-12T17:20:35.065Z,1.05
2022-08-12T17:23:13.761Z,1.27
2022-08-12T17:26:01.325Z,0.90
2022-08-12T17:28:52.215Z,0.90
2022-08-12T17:32:00.506Z,1.10
2022-08-12T17:34:49.075Z,1.30
2022-08-12T17:40:34.904Z,0.93
2022-08-12T17:43:56.201Z,1.15
2022-08-12T17:46:12.609Z,1.20
2022-08-12T17:49:00.640Z,1.10
2022-08-12T17:52:02.903Z,1.00
2022-08-12T17:54:46.573Z,1.07
2022-08-12T17:57:40.562Z,1.17
2022-08-12T18:00:29.028Z,1.30
2022-08-12T18:03:58.085Z,1.40
2022-08-12T18:06:14.214Z,1.50
2022-08-12T18:08:59.901Z,1.32
2022-08-12T18:12:08.408Z,1.25
2022-08-12T18:15:00.551Z,1.00
2022-08-12T18:17:49.319Z,0.98
2022-08-12T18:20:44.128Z,0.98
2022-08-12T18:23:28.352Z,1.40
2022-08-12T18:26:23.844Z,1.20
2022-08-12T18:29:12.547Z,1.10
2022-08-12T18:32:09.020Z,1.40
2022-08-12T18:34:56.152Z,1.15
2022-08-12T18:37:42.351Z,1.40
2022-08-12T18:40:47.238Z,1.40
2022-08-12T18:43:39.132Z,1.30
2022-08-12T18:46:29.954Z,1.27
2022-08-12T18:49:21.647Z,1.27
2022-08-12T18:52:11.946Z,1.22
2022-08-12T18:55:02.613Z,1.17
2022-08-12T18:58:08.546Z,1.30
2022-08-12T19:00:38.135Z,1.45
2022-08-12T19:03:39.530Z,1.10
2022-08-12T19:06:16.314Z,1.30
2022-08-12T19:09:10.006Z,1.22
2022-08-12T19:12:20.341Z,1.57
2022-08-12T19:15:05.228Z,0.98
2022-08-12T19:18:00.558Z,1.20
2022-08-12T19:20:41.982Z,1.35
2022-08-12T19:23:51.607Z,1.50
2022-08-12T19:26:40.834Z,1.27
2022-08-12T19:29:28.727Z,1.27
2022-08-12T19:32:27.070Z,1.10
2022-08-12T19:38:06.860Z,1.47
2022-08-12T19:40:53.108Z,1.35
2022-08-12T19:43:40.740Z,1.17
2022-08-12T19:46:34.698Z,1.57
2022-08-12T19:49:22.297Z,1.50
2022-08-12T19:52:11.752Z,1.40
2022-08-12T19:55:03.307Z,1.02
2022-08-12T19:58:02.309Z,1.20
2022-08-12T20:01:00.713Z,1.55
2022-08-12T20:03:57.454Z,1.77
2022-08-12T20:06:51.349Z,1.10
2022-08-12T20:09:39.699Z,1.57
2022-08-12T20:12:32.644Z,1.35
2022-08-12T20:15:17.750Z,1.67
2022-08-12T20:18:06.557Z,1.37
2022-08-12T20:20:56.597Z,1.32
2022-08-12T20:23:50.668Z,1.42
2022-08-12T20:26:34.377Z,1.17
2022-08-12T20:29:22.768Z,1.25
2022-08-12T20:32:12.324Z,1.70
2022-08-12T20:35:01.225Z,1.10
2022-08-12T20:38:06.162Z,1.20
2022-08-12T20:40:38.809Z,1.27
2022-08-12T20:43:28.349Z,1.17
2022-08-12T20:46:15.417Z,1.30
2022-08-12T20:49:14.797Z,1.40
2022-08-12T20:51:56.143Z,1.20
2022-08-12T20:54:51.707Z,1.20
2022-08-12T20:58:02.682Z,1.40
2022-08-12T21:00:28.668Z,1.20
2022-08-12T21:03:34.036Z,1.25
2022-08-12T21:06:40.607Z,1.20
2022-08-12T21:09:31.037Z,1.37
2022-08-12T21:12:30.887Z,1.12
2022-08-12T21:15:23.596Z,1.10
2022-08-12T21:18:10.914Z,1.40
2022-08-12T21:20:55.346Z,1.25
2022-08-12T21:23:42.516Z,1.37
2022-08-12T21:26:29.909Z,1.10
2022-08-12T21:29:17.760Z,1.20
2022-08-12T21:32:35.965Z,1.02
2022-08-12T21:34:56.709Z,1.17
2022-08-12T21:37:53.406Z,1.10
2022-08-12T21:40:37.641Z,1.37
2022-08-12T21:43:22.522Z,1.20
2022-08-12T21:46:15.016Z,1.10
2022-08-12T21:49:04.555Z,1.02
2022-08-12T21:51:50.660Z,1.15
2022-08-12T21:54:43.679Z,1.12
2022-08-12T21:57:36.543Z,1.15
2022-08-12T22:00:31.587Z,0.93
2022-08-12T22:04:03.772Z,1.10
2022-08-12T22:06:30.692Z,1.50
2022-08-12T22:09:16.216Z,1.10
2022-08-12T22:12:21.465Z,1.00
2022-08-12T22:15:21.873Z,1.10
2022-08-12T22:18:01.750Z,1.00
2022-08-12T22:20:49.265Z,0.93
2022-08-12T22:23:51.491Z,1.10
2022-08-12T22:26:29.184Z,1.10
2022-08-12T22:29:33.618Z,1.02
2022-08-12T22:32:21.037Z,1.10
2022-08-12T22:35:28.984Z,1.05
2022-08-12T22:41:14.961Z,0.95
2022-08-12T22:44:23.298Z,1.62
2022-08-12T22:47:53.572Z,1.15
2022-08-12T22:50:27.149Z,1.10
2022-08-12T22:53:17.346Z,1.10
2022-08-12T22:56:08.336Z,1.30
2022-08-12T22:58:59.490Z,1.12
2022-08-12T23:01:52.350Z,1.32
2022-08-12T23:04:37.131Z,1.20
2022-08-12T23:07:25.012Z,0.98
2022-08-12T23:10:12.333Z,1.15
2022-08-12T23:13:17.523Z,1.15
2022-08-12T23:16:05.554Z,1.22
2022-08-12T23:18:53.948Z,1.10
2022-08-12T23:22:06.077Z,1.20
2022-08-12T23:24:38.378Z,1.17
2022-08-12T23:27:52.148Z,1.32
2022-08-12T23:30:38.955Z,1.20
2022-08-12T23:34:01.712Z,1.05
2022-08-12T23:36:31.724Z,0.95
2022-08-12T23:40:15.028Z,0.95
2022-08-12T23:42:17.989Z,1.20
2022-08-12T23:44:54.574Z,1.10
2022-08-12T23:47:43.694Z,1.20
2022-08-12T23:50:33.808Z,1.17
2022-08-12T23:53:25.421Z,1.20
2022-08-12T23:56:17.828Z,1.15
2022-08-12T23:59:10.326Z,1.10
